PWSweather.com
Personal Weather Stations
Station Observations
AZSANMA
Original Township, San Manuel, AZ 85631

Original TownshipSan Manuel, AZ 85631

Lat: 32.6054845, Lon: -110.6334435

Elevation: 3433

Station Type: Ambient Weather WS-2902

Latest ConditionsUpdated 12:22:00 AM MST Saturday, Apr 20, 2019
Currently Today's Max Today's Min Today's Average
Temperature 70.9°F21.6°C 72.3°F22.4°C 70.9°F21.6°C 71.8°F22.1°C
Dew Point 29.0°F-1.7°C 30.7°F-0.7°C 28.4°F-2.0°C 29.4°F-1.4°C
Winds 1.8 mph S2.9 kmh S 5.4 mph -8.7 kmh - - 2.6 mph 4.2 kmh
Wind Gusts 2.2 mph3.5 kmh 6.9 mph11.1 kmh - -
Humidity 21% 22% 20% 21%
Pressure 29.97 in1014.9 mb 29.98 in1015.2 mb 29.96 in1014.6 mb -
Hour Temp Dew Point Humidity Winds Wind Gusts Pressure Precip Precip Rate Daily Precip Total
12:22 AM 70.9°F21.6°C 29.0°F-1.7°C 21% 1.8 mph S2.9 kmh S 2.2 mph3.5 kmh 29.97 in1014.9 mb 0.00 in0.0 mm 0.00 in0.0 mm 0.00 in0.0 mm
12:21 AM 70.9°F21.6°C 30.2°F-1.0°C 22% 1.3 mph S2.1 kmh S 2.2 mph3.5 kmh 29.97 in1014.9 mb 0.00 in0.0 mm 0.00 in0.0 mm 0.00 in0.0 mm
12:20 AM 71.1°F21.7°C 29.2°F-1.6°C 21% 3.6 mph WSW5.8 kmh WSW 4.5 mph7.2 kmh 29.98 in1015.2 mb 0.00 in0.0 mm 0.00 in0.0 mm 0.00 in0.0 mm
12:19 AM 71.2°F21.8°C 30.4°F-0.9°C 22% 2.5 mph S4.0 kmh S 3.4 mph5.5 kmh 29.97 in1014.9 mb 0.00 in0.0 mm 0.00 in0.0 mm 0.00 in0.0 mm
12:18 AM 71.4°F21.9°C 30.6°F-0.8°C 22% 2.2 mph SSW3.5 kmh SSW 3.4 mph5.5 kmh 29.97 in1014.9 mb 0.00 in0.0 mm 0.00 in0.0 mm 0.00 in0.0 mm
12:17 AM 71.6°F22.0°C 30.7°F-0.7°C 22% 2.7 mph SW4.3 kmh SW 3.4 mph5.5 kmh 29.98 in1015.2 mb 0.00 in0.0 mm 0.00 in0.0 mm 0.00 in0.0 mm
12:16 AM 72.0°F22.2°C 29.9°F-1.2°C 21% 3.4 mph SW5.5 kmh SW 4.5 mph7.2 kmh 29.97 in1014.9 mb 0.00 in0.0 mm 0.00 in0.0 mm 0.00 in0.0 mm
12:15 AM 72.1°F22.3°C 30.0°F-1.1°C 21% 2.2 mph SW3.5 kmh SW 2.2 mph3.5 kmh 29.97 in1014.9 mb 0.00 in0.0 mm 0.00 in0.0 mm 0.00 in0.0 mm
12:14 AM 72.1°F22.3°C 28.8°F-1.8°C 20% 3.4 mph SE5.5 kmh SE 3.4 mph5.5 kmh 29.97 in1014.9 mb 0.00 in0.0 mm 0.00 in0.0 mm 0.00 in0.0 mm
12:13 AM 72.3°F22.4°C 30.2°F-1.0°C 21% 2.2 mph SE3.5 kmh SE 3.4 mph5.5 kmh 29.97 in1014.9 mb 0.00 in0.0 mm 0.00 in0.0 mm 0.00 in0.0 mm
12:12 AM 72.3°F22.4°C 29.0°F-1.7°C 20% 4.3 mph SE6.9 kmh SE 4.5 mph7.2 kmh 29.97 in1014.9 mb 0.00 in0.0 mm 0.00 in0.0 mm 0.00 in0.0 mm
12:11 AM 72.3°F22.4°C 29.0°F-1.7°C 20% 2.9 mph S4.7 kmh S 3.4 mph5.5 kmh 29.97 in1014.9 mb 0.00 in0.0 mm 0.00 in0.0 mm 0.00 in0.0 mm
12:10 AM 72.3°F22.4°C 29.0°F-1.7°C 20% 4.0 mph S6.4 kmh S 4.5 mph7.2 kmh 29.97 in1014.9 mb 0.00 in0.0 mm 0.00 in0.0 mm 0.00 in0.0 mm
12:09 AM 72.3°F22.4°C 29.0°F-1.7°C 20% 2.9 mph S4.7 kmh S 3.4 mph5.5 kmh 29.97 in1014.9 mb 0.00 in0.0 mm 0.00 in0.0 mm 0.00 in0.0 mm
12:08 AM 72.1°F22.3°C 28.8°F-1.8°C 20% 4.5 mph SSE7.2 kmh SSE 4.5 mph7.2 kmh 29.97 in1014.9 mb 0.00 in0.0 mm 0.00 in0.0 mm 0.00 in0.0 mm
12:07 AM 72.0°F22.2°C 28.7°F-1.8°C 20% 2.5 mph SSE4.0 kmh SSE 4.5 mph7.2 kmh 29.96 in1014.6 mb 0.00 in0.0 mm 0.00 in0.0 mm 0.00 in0.0 mm
12:06 AM 71.8°F22.1°C 28.6°F-1.9°C 20% 2.7 mph E4.3 kmh E 3.4 mph5.5 kmh 29.97 in1014.9 mb 0.00 in0.0 mm 0.00 in0.0 mm 0.00 in0.0 mm
12:05 AM 71.8°F22.1°C 28.6°F-1.9°C 20% 2.5 mph SE4.0 kmh SE 3.4 mph5.5 kmh 29.97 in1014.9 mb 0.00 in0.0 mm 0.00 in0.0 mm 0.00 in0.0 mm
12:04 AM 71.6°F22.0°C 28.4°F-2.0°C 20% 5.4 mph SE8.7 kmh SE 6.9 mph11.1 kmh 29.97 in1014.9 mb 0.00 in0.0 mm 0.00 in0.0 mm 0.00 in0.0 mm
12:03 AM 71.6°F22.0°C 29.6°F-1.3°C 21% 1.3 mph S2.1 kmh S 2.2 mph3.5 kmh 29.98 in1015.2 mb 0.00 in0.0 mm 0.00 in0.0 mm 0.00 in0.0 mm
12:02 AM 71.8°F22.1°C 29.8°F-1.2°C 21% 0.4 mph S0.6 kmh S 1.1 mph1.8 kmh 29.97 in1014.9 mb 0.00 in0.0 mm 0.00 in0.0 mm 0.00 in0.0 mm
12:01 AM 72.0°F22.2°C 29.9°F-1.2°C 21% 0.2 mph S0.3 kmh S 1.1 mph1.8 kmh 29.97 in1014.9 mb 0.00 in0.0 mm 0.00 in0.0 mm 0.00 in0.0 mm
12:00 AM 72.0°F22.2°C 29.9°F-1.2°C 21% 0.7 mph S1.1 kmh S 1.1 mph1.8 kmh 29.97 in1014.9 mb 0.00 in0.0 mm 0.00 in0.0 mm 0.00 in0.0 mm